createdAt,value
2022-10-12T00:04:07.402Z,100.00
2022-10-12T00:09:11.098Z,100.00
2022-10-12T00:14:14.956Z,100.00
2022-10-12T00:19:22.369Z,100.00
2022-10-12T00:24:28.476Z,100.00
2022-10-12T00:29:32.298Z,100.00
2022-10-12T00:34:37.421Z,100.00
2022-10-12T00:39:41.376Z,100.00
2022-10-12T00:44:47.441Z,100.00
2022-10-12T00:49:56.675Z,100.00
2022-10-12T00:55:02.007Z,100.00
2022-10-12T01:00:08.481Z,100.00
2022-10-12T01:05:13.796Z,100.00
2022-10-12T01:10:17.944Z,100.00
2022-10-12T01:15:23.443Z,100.00
2022-10-12T01:20:46.668Z,100.00
2022-10-12T01:26:07.452Z,100.00
2022-10-12T01:31:20.450Z,100.00
2022-10-12T01:36:32.858Z,100.00
2022-10-12T01:41:40.882Z,100.00
2022-10-12T01:46:47.619Z,100.00
2022-10-12T01:52:02.005Z,100.00
2022-10-12T01:57:12.429Z,100.00
2022-10-12T02:02:22.607Z,100.00
2022-10-12T02:07:33.649Z,100.00
2022-10-12T02:12:41.449Z,100.00
2022-10-12T02:17:50.671Z,100.00
2022-10-12T02:22:55.759Z,100.00
2022-10-12T02:28:06.616Z,100.00
2022-10-12T02:33:17.389Z,100.00
2022-10-12T02:38:26.540Z,100.00
2022-10-12T02:43:37.864Z,100.00
2022-10-12T02:48:44.850Z,100.00
2022-10-12T02:53:49.206Z,100.00
2022-10-12T02:58:53.224Z,100.00
2022-10-12T03:03:58.206Z,100.00
2022-10-12T03:09:01.985Z,100.00
2022-10-12T03:14:05.845Z,100.00
2022-10-12T03:19:11.064Z,100.00
2022-10-12T03:24:14.830Z,100.00
2022-10-12T03:29:18.830Z,100.00
2022-10-12T03:34:23.844Z,100.00
2022-10-12T03:39:27.512Z,100.00
2022-10-12T03:44:31.151Z,100.00
2022-10-12T03:49:36.115Z,100.00
2022-10-12T03:54:39.765Z,100.00
2022-10-12T03:59:43.478Z,100.00
2022-10-12T04:04:48.510Z,100.00
2022-10-12T04:09:52.190Z,100.00
2022-10-12T04:14:55.868Z,100.00
2022-10-12T04:20:00.852Z,100.00
2022-10-12T04:25:04.756Z,100.00
2022-10-12T04:30:09.772Z,100.00
2022-10-12T04:35:14.867Z,100.00
2022-10-12T04:40:18.595Z,100.00
2022-10-12T04:45:22.254Z,100.00
2022-10-12T04:50:30.032Z,100.00
2022-10-12T04:55:34.186Z,100.00
2022-10-12T05:00:38.007Z,100.00
2022-10-12T05:05:45.550Z,100.00
2022-10-12T05:10:49.293Z,100.00
2022-10-12T05:15:53.035Z,100.00
2022-10-12T05:20:58.039Z,100.00
2022-10-12T05:26:01.777Z,100.00
2022-10-12T05:31:05.522Z,100.00
2022-10-12T05:36:10.948Z,100.00
2022-10-12T05:41:14.639Z,100.00
2022-10-12T05:46:18.317Z,100.00
2022-10-12T05:51:28.577Z,100.00
2022-10-12T05:56:32.614Z,100.00
2022-10-12T06:01:36.425Z,100.00
2022-10-12T06:06:41.451Z,100.00
2022-10-12T06:11:45.136Z,100.00
2022-10-12T06:16:51.100Z,100.00
2022-10-12T06:21:59.375Z,100.00
2022-10-12T06:27:03.050Z,100.00
2022-10-12T06:32:06.820Z,100.00
2022-10-12T06:37:25.334Z,100.00
2022-10-12T06:42:35.613Z,100.00
2022-10-12T06:47:39.364Z,100.00
2022-10-12T06:52:44.578Z,100.00
2022-10-12T06:57:48.271Z,100.00
2022-10-12T07:02:52.332Z,100.00
2022-10-12T07:07:57.355Z,100.00
2022-10-12T07:13:01.031Z,100.00
2022-10-12T07:18:05.059Z,100.00
2022-10-12T07:23:10.257Z,100.00
2022-10-12T07:28:14.019Z,100.00
2022-10-12T07:33:17.956Z,100.00
2022-10-12T07:38:22.952Z,100.00
2022-10-12T07:43:26.714Z,100.00
2022-10-12T07:48:30.541Z,100.00
2022-10-12T07:53:36.825Z,100.00
2022-10-12T07:58:40.524Z,100.00
2022-10-12T08:03:44.319Z,100.00
2022-10-12T08:08:49.495Z,100.00
2022-10-12T08:13:53.255Z,100.00
2022-10-12T08:18:56.980Z,100.00
2022-10-12T08:24:02.050Z,100.00
2022-10-12T08:29:07.029Z,100.00
2022-10-12T08:34:10.895Z,100.00
2022-10-12T08:39:18.641Z,100.00
2022-10-12T08:44:53.628Z,100.00
2022-10-12T08:49:57.815Z,100.00
2022-10-12T08:55:07.738Z,100.00
2022-10-12T09:00:14.790Z,100.00
2022-10-12T09:05:26.522Z,100.00
2022-10-12T09:10:44.823Z,100.00
2022-10-12T09:15:53.799Z,100.00
2022-10-12T09:20:58.859Z,100.00
2022-10-12T09:26:12.583Z,100.00
2022-10-12T09:31:44.270Z,100.00
2022-10-12T09:36:48.146Z,100.00
2022-10-12T09:41:53.158Z,100.00
2022-10-12T09:46:59.989Z,100.00
2022-10-12T09:52:06.675Z,100.00
2022-10-12T09:57:11.664Z,100.00
2022-10-12T10:02:18.630Z,100.00
2022-10-12T10:07:27.403Z,100.00
2022-10-12T10:12:32.934Z,100.00
2022-10-12T10:17:36.789Z,100.00
2022-10-12T10:22:48.952Z,100.00
2022-10-12T10:28:11.748Z,100.00
2022-10-12T10:33:19.930Z,100.00
2022-10-12T10:38:23.568Z,100.00
2022-10-12T10:43:30.922Z,86.50
2022-10-12T10:48:53.086Z,100.00
2022-10-12T10:54:13.881Z,96.01
2022-10-12T10:59:26.899Z,93.04
2022-10-12T11:04:36.205Z,68.58
2022-10-12T11:09:44.382Z,79.83
2022-10-12T11:14:53.221Z,67.27
2022-10-12T11:20:07.271Z,59.94
2022-10-12T11:25:20.718Z,59.25
2022-10-12T11:30:27.788Z,61.01
2022-10-12T11:35:34.944Z,60.77
2022-10-12T11:46:13.408Z,63.24
2022-10-12T11:51:17.120Z,61.62
2022-10-12T11:56:24.587Z,61.92
2022-10-12T12:01:48.073Z,62.72
2022-10-12T12:06:55.114Z,62.49
2022-10-12T12:12:16.163Z,62.13
2022-10-12T12:17:29.450Z,58.41
2022-10-12T12:22:50.649Z,57.63
2022-10-12T12:27:57.360Z,55.01
2022-10-12T12:33:04.275Z,57.98
2022-10-12T12:38:18.465Z,57.29
2022-10-12T12:43:37.437Z,57.51
2022-10-12T12:49:01.296Z,58.12
2022-10-12T12:54:07.507Z,58.56
2022-10-12T12:59:39.115Z,57.27
2022-10-12T13:05:08.414Z,58.00
2022-10-12T13:10:24.009Z,58.61
2022-10-12T13:15:43.619Z,60.91
2022-10-12T13:20:50.220Z,64.94
2022-10-12T13:25:57.407Z,67.04
2022-10-12T13:31:05.787Z,69.51
2022-10-12T13:36:19.379Z,71.64
2022-10-12T13:41:23.854Z,73.49
2022-10-12T13:46:41.563Z,73.72
2022-10-12T13:51:49.559Z,68.90
2022-10-12T13:56:58.025Z,66.40
2022-10-12T14:02:03.362Z,56.71
2022-10-12T14:07:16.843Z,55.45
2022-10-12T14:12:25.341Z,55.11
2022-10-12T14:17:29.556Z,50.31
2022-10-12T14:22:34.681Z,51.79
2022-10-12T14:27:40.670Z,53.31
2022-10-12T14:32:45.160Z,54.39
2022-10-12T14:37:52.208Z,52.22
2022-10-12T14:42:59.448Z,54.02
2022-10-12T14:48:05.061Z,57.96
2022-10-12T14:53:12.755Z,60.62
2022-10-12T14:58:18.051Z,65.96
2022-10-12T15:03:21.677Z,68.42
2022-10-12T15:08:26.833Z,69.92
2022-10-12T15:13:30.497Z,71.99
2022-10-12T15:18:34.275Z,75.16
2022-10-12T15:23:39.296Z,74.28
2022-10-12T15:28:43.769Z,68.28
2022-10-12T15:33:47.880Z,70.64
2022-10-12T15:38:52.943Z,73.40
2022-10-12T15:43:56.717Z,76.01
2022-10-12T15:49:00.557Z,79.53
2022-10-12T15:54:05.740Z,82.73
2022-10-12T15:59:09.516Z,86.65
2022-10-12T16:04:15.733Z,90.92
2022-10-12T16:09:20.805Z,92.23
2022-10-12T16:14:24.566Z,92.48
2022-10-12T16:19:28.283Z,95.74
2022-10-12T16:24:33.301Z,97.48
2022-10-12T16:29:37.260Z,95.79
2022-10-12T16:34:40.985Z,96.63
2022-10-12T16:39:46.015Z,97.59
2022-10-12T16:44:49.868Z,99.55
2022-10-12T16:49:53.919Z,100.00
2022-10-12T16:54:58.994Z,100.00
2022-10-12T17:00:03.034Z,100.00
2022-10-12T17:05:07.091Z,100.00
2022-10-12T17:10:12.273Z,100.00
2022-10-12T17:15:16.206Z,100.00
2022-10-12T17:20:19.906Z,100.00
2022-10-12T17:25:24.994Z,100.00
2022-10-12T17:30:28.784Z,100.00
2022-10-12T17:35:32.609Z,100.00
2022-10-12T17:40:39.605Z,100.00
2022-10-12T17:45:43.322Z,100.00
2022-10-12T17:50:47.096Z,100.00
2022-10-12T17:55:58.825Z,100.00
2022-10-12T18:01:05.217Z,100.00
2022-10-12T18:06:10.983Z,100.00
2022-10-12T18:11:17.898Z,100.00
2022-10-12T18:16:24.308Z,100.00
2022-10-12T18:21:29.762Z,100.00
2022-10-12T18:26:35.082Z,100.00
2022-10-12T18:31:38.816Z,100.00
2022-10-12T18:36:42.843Z,100.00
2022-10-12T18:41:51.501Z,100.00
2022-10-12T18:46:55.604Z,100.00
2022-10-12T18:51:59.454Z,100.00
2022-10-12T18:57:04.705Z,100.00
2022-10-12T19:02:08.642Z,100.00
2022-10-12T19:07:12.582Z,100.00
2022-10-12T19:12:19.677Z,100.00
2022-10-12T19:17:23.761Z,100.00
2022-10-12T19:22:28.099Z,100.00
2022-10-12T19:27:33.138Z,100.00
2022-10-12T19:32:38.346Z,100.00
2022-10-12T19:37:42.038Z,100.00
2022-10-12T19:42:48.174Z,100.00
2022-10-12T19:47:51.873Z,100.00
2022-10-12T19:52:55.585Z,100.00
2022-10-12T19:58:01.326Z,100.00
2022-10-12T20:03:05.924Z,100.00
2022-10-12T20:08:09.615Z,100.00
2022-10-12T20:13:14.785Z,100.00
2022-10-12T20:18:18.475Z,100.00
2022-10-12T20:23:23.470Z,100.00
2022-10-12T20:28:28.637Z,100.00
2022-10-12T20:33:32.445Z,100.00
2022-10-12T20:38:36.160Z,100.00
2022-10-12T20:43:41.752Z,100.00
2022-10-12T20:48:46.232Z,100.00
2022-10-12T20:53:50.805Z,100.00
2022-10-12T20:58:56.188Z,100.00
2022-10-12T21:03:59.955Z,100.00
2022-10-12T21:09:03.814Z,100.00
2022-10-12T21:14:11.919Z,100.00
2022-10-12T21:19:16.824Z,100.00
2022-10-12T21:24:20.766Z,100.00
2022-10-12T21:29:26.249Z,100.00
2022-10-12T21:34:29.929Z,100.00
2022-10-12T21:39:33.736Z,100.00
2022-10-12T21:44:38.788Z,100.00
2022-10-12T21:49:42.552Z,100.00
2022-10-12T21:54:46.980Z,100.00
2022-10-12T21:59:52.060Z,100.00
2022-10-12T22:04:55.737Z,100.00
2022-10-12T22:09:59.451Z,100.00
2022-10-12T22:15:05.187Z,100.00
2022-10-12T22:20:09.642Z,100.00
2022-10-12T22:25:16.937Z,100.00
2022-10-12T22:30:22.246Z,100.00
2022-10-12T22:35:26.023Z,100.00
2022-10-12T22:40:29.884Z,100.00
2022-10-12T22:45:35.060Z,100.00
2022-10-12T22:50:38.744Z,100.00
2022-10-12T22:55:42.537Z,100.00
2022-10-12T23:00:48.018Z,100.00
2022-10-12T23:05:52.020Z,100.00
2022-10-12T23:10:55.817Z,100.00
2022-10-12T23:16:05.847Z,100.00
2022-10-12T23:21:11.752Z,100.00
2022-10-12T23:26:18.002Z,100.00
2022-10-12T23:31:25.158Z,100.00
2022-10-12T23:36:30.245Z,100.00
2022-10-12T23:41:33.925Z,100.00
2022-10-12T23:46:38.930Z,100.00
2022-10-12T23:51:42.737Z,100.00
2022-10-12T23:56:46.488Z,100.00
